sensor_id;sensor_type;location;lat;lon;timestamp;P1;durP1;ratioP1;P2;durP2;ratioP2
49556;SDS011;35462;45.048;7.666;2023-12-20T00:09:43;45.57;;;27.07;;
49556;SDS011;35462;45.048;7.666;2023-12-20T00:25:02;39.20;;;28.50;;
49556;SDS011;35462;45.048;7.666;2023-12-20T00:40:22;35.57;;;25.47;;
49556;SDS011;35462;45.048;7.666;2023-12-20T00:55:41;37.87;;;24.30;;
49556;SDS011;35462;45.048;7.666;2023-12-20T01:26:22;33.93;;;23.13;;
49556;SDS011;35462;45.048;7.666;2023-12-20T01:41:42;36.27;;;24.60;;
49556;SDS011;35462;45.048;7.666;2023-12-20T01:57:01;32.43;;;24.13;;
49556;SDS011;35462;45.048;7.666;2023-12-20T02:12:22;36.53;;;22.85;;
49556;SDS011;35462;45.048;7.666;2023-12-20T02:27:41;33.93;;;22.00;;
49556;SDS011;35462;45.048;7.666;2023-12-20T02:43:01;32.15;;;21.92;;
49556;SDS011;35462;45.048;7.666;2023-12-20T02:58:21;33.40;;;22.90;;
49556;SDS011;35462;45.048;7.666;2023-12-20T03:13:40;34.10;;;22.50;;
49556;SDS011;35462;45.048;7.666;2023-12-20T03:29:00;36.57;;;25.27;;
49556;SDS011;35462;45.048;7.666;2023-12-20T03:44:19;25.57;;;19.83;;
49556;SDS011;35462;45.048;7.666;2023-12-20T04:14:59;22.95;;;12.70;;
49556;SDS011;35462;45.048;7.666;2023-12-20T04:30:18;18.10;;;12.60;;
49556;SDS011;35462;45.048;7.666;2023-12-20T04:45:38;18.63;;;11.67;;
49556;SDS011;35462;45.048;7.666;2023-12-20T05:00:57;16.43;;;11.90;;
49556;SDS011;35462;45.048;7.666;2023-12-20T05:16:18;25.05;;;15.23;;
49556;SDS011;35462;45.048;7.666;2023-12-20T05:31:37;24.00;;;16.40;;
49556;SDS011;35462;45.048;7.666;2023-12-20T05:46:56;25.00;;;16.07;;
49556;SDS011;35462;45.048;7.666;2023-12-20T06:02:16;25.13;;;16.97;;
49556;SDS011;35462;45.048;7.666;2023-12-20T06:17:35;28.87;;;17.37;;
49556;SDS011;35462;45.048;7.666;2023-12-20T06:32:55;26.53;;;16.57;;
49556;SDS011;35462;45.048;7.666;2023-12-20T06:48:16;21.50;;;16.05;;
49556;SDS011;35462;45.048;7.666;2023-12-20T07:03:36;25.07;;;17.73;;
49556;SDS011;35462;45.048;7.666;2023-12-20T07:18:55;30.90;;;16.13;;
49556;SDS011;35462;45.048;7.666;2023-12-20T07:34:16;27.98;;;17.00;;
49556;SDS011;35462;45.048;7.666;2023-12-20T07:49:35;27.73;;;18.77;;
49556;SDS011;35462;45.048;7.666;2023-12-20T08:04:55;28.73;;;18.47;;
49556;SDS011;35462;45.048;7.666;2023-12-20T08:20:14;26.70;;;17.53;;
49556;SDS011;35462;45.048;7.666;2023-12-20T08:35:34;26.27;;;18.07;;
49556;SDS011;35462;45.048;7.666;2023-12-20T08:50:53;27.00;;;18.27;;
49556;SDS011;35462;45.048;7.666;2023-12-20T09:06:12;33.00;;;17.67;;
49556;SDS011;35462;45.048;7.666;2023-12-20T09:21:32;34.70;;;19.77;;
49556;SDS011;35462;45.048;7.666;2023-12-20T09:36:52;33.40;;;20.37;;
49556;SDS011;35462;45.048;7.666;2023-12-20T09:52:12;29.65;;;21.13;;
49556;SDS011;35462;45.048;7.666;2023-12-20T10:07:33;44.65;;;25.75;;
49556;SDS011;35462;45.048;7.666;2023-12-20T10:22:54;36.20;;;26.73;;
49556;SDS011;35462;45.048;7.666;2023-12-20T10:38:15;40.40;;;24.35;;
49556;SDS011;35462;45.048;7.666;2023-12-20T10:53:34;32.67;;;24.03;;
49556;SDS011;35462;45.048;7.666;2023-12-20T11:09:01;29.77;;;20.88;;
49556;SDS011;35462;45.048;7.666;2023-12-20T11:24:36;30.80;;;21.57;;
49556;SDS011;35462;45.048;7.666;2023-12-20T11:40:05;30.67;;;22.10;;
49556;SDS011;35462;45.048;7.666;2023-12-20T11:55:26;32.83;;;23.33;;
49556;SDS011;35462;45.048;7.666;2023-12-20T12:10:46;42.43;;;24.47;;
49556;SDS011;35462;45.048;7.666;2023-12-20T12:26:05;36.47;;;23.63;;
49556;SDS011;35462;45.048;7.666;2023-12-20T12:41:25;29.45;;;22.40;;
49556;SDS011;35462;45.048;7.666;2023-12-20T12:56:45;35.00;;;20.75;;
49556;SDS011;35462;45.048;7.666;2023-12-20T13:12:07;27.58;;;19.35;;
49556;SDS011;35462;45.048;7.666;2023-12-20T13:42:46;25.33;;;20.30;;
49556;SDS011;35462;45.048;7.666;2023-12-20T13:58:07;29.23;;;21.33;;
49556;SDS011;35462;45.048;7.666;2023-12-20T14:13:29;31.88;;;21.42;;
49556;SDS011;35462;45.048;7.666;2023-12-20T14:28:48;27.67;;;22.03;;
49556;SDS011;35462;45.048;7.666;2023-12-20T14:44:08;32.73;;;23.07;;
49556;SDS011;35462;45.048;7.666;2023-12-20T14:59:27;31.97;;;21.57;;
49556;SDS011;35462;45.048;7.666;2023-12-20T15:14:47;31.80;;;22.90;;
49556;SDS011;35462;45.048;7.666;2023-12-20T15:30:07;33.50;;;23.83;;
49556;SDS011;35462;45.048;7.666;2023-12-20T15:45:28;57.17;;;27.13;;
49556;SDS011;35462;45.048;7.666;2023-12-20T16:00:47;38.97;;;24.03;;
49556;SDS011;35462;45.048;7.666;2023-12-20T16:16:08;38.38;;;24.35;;
49556;SDS011;35462;45.048;7.666;2023-12-20T16:46:47;38.97;;;23.98;;
49556;SDS011;35462;45.048;7.666;2023-12-20T17:02:08;39.90;;;25.03;;
49556;SDS011;35462;45.048;7.666;2023-12-20T17:17:27;39.25;;;25.70;;
49556;SDS011;35462;45.048;7.666;2023-12-20T17:32:47;42.73;;;26.23;;
49556;SDS011;35462;45.048;7.666;2023-12-20T17:48:08;43.92;;;26.33;;
49556;SDS011;35462;45.048;7.666;2023-12-20T18:03:27;35.27;;;24.63;;
49556;SDS011;35462;45.048;7.666;2023-12-20T18:18:47;38.83;;;26.00;;
49556;SDS011;35462;45.048;7.666;2023-12-20T18:34:06;42.80;;;25.67;;
49556;SDS011;35462;45.048;7.666;2023-12-20T18:49:26;41.53;;;27.67;;
49556;SDS011;35462;45.048;7.666;2023-12-20T19:04:45;43.73;;;28.20;;
49556;SDS011;35462;45.048;7.666;2023-12-20T19:20:05;48.77;;;29.30;;
49556;SDS011;35462;45.048;7.666;2023-12-20T19:35:25;40.47;;;28.38;;
49556;SDS011;35462;45.048;7.666;2023-12-20T19:50:44;40.70;;;28.77;;
49556;SDS011;35462;45.048;7.666;2023-12-20T20:06:06;40.53;;;25.60;;
49556;SDS011;35462;45.048;7.666;2023-12-20T20:21:26;40.27;;;27.60;;
49556;SDS011;35462;45.048;7.666;2023-12-20T20:36:45;39.83;;;25.90;;
49556;SDS011;35462;45.048;7.666;2023-12-20T20:52:05;38.80;;;27.27;;
49556;SDS011;35462;45.048;7.666;2023-12-20T21:07:24;38.23;;;26.87;;
49556;SDS011;35462;45.048;7.666;2023-12-20T21:38:04;43.97;;;26.52;;
49556;SDS011;35462;45.048;7.666;2023-12-20T21:53:23;39.93;;;28.13;;
49556;SDS011;35462;45.048;7.666;2023-12-20T22:08:43;38.20;;;27.77;;
49556;SDS011;35462;45.048;7.666;2023-12-20T22:24:02;45.00;;;28.27;;
49556;SDS011;35462;45.048;7.666;2023-12-20T22:54:42;44.97;;;28.98;;
49556;SDS011;35462;45.048;7.666;2023-12-20T23:10:01;47.83;;;29.23;;
49556;SDS011;35462;45.048;7.666;2023-12-20T23:40:41;39.08;;;26.00;;
49556;SDS011;35462;45.048;7.666;2023-12-20T23:56:02;42.38;;;25.60;;
